Time;durP1;ratioP1;P1;durP2;ratioP2;P2;SDS_P1;SDS_P2;PMS_P1;PMS_P2;Temp;Humidity;BMP_temperature;BMP_pressure;BME280_temperature;BME280_humidity;BME280_pressure;Samples;Min_cycle;Max_cycle;Signal;HPM_P1;HPM_P2
2022/01/26 00:00:42;;;;;;;0.83;0.83;;;;;;;-12.67;77.95;92904.06;5014485;28;20466;-73
2022/01/26 00:06:03;;;;;;;1.20;1.20;;;;;;;-12.86;79.46;92882.94;5017456;28;20228;-73
2022/01/26 00:08:30;;;;;;;1.00;1.00;;;;;;;-12.62;78.29;92893.78;5016343;28;20194;-73
2022/01/26 00:10:58;;;;;;;3.43;3.33;;;;;;;-12.47;78.05;92890.38;5015448;28;20552;-73
2022/01/26 00:13:25;;;;;;;1.00;1.00;;;;;;;-12.62;78.88;92891.34;5015722;28;20544;-73
2022/01/26 00:15:53;;;;;;;1.60;1.60;;;;;;;-12.54;76.65;92893.31;5015023;28;20295;-73
2022/01/26 00:18:22;;;;;;;0.90;0.90;;;;;;;-12.49;75.98;92899.22;5015277;28;20198;-73
2022/01/26 00:20:54;;;;;;;0.90;0.90;;;;;;;-12.53;75.57;92893.38;5015425;28;20501;-73
2022/01/26 00:23:49;;;;;;;0.90;0.90;;;;;;;-12.55;76.48;92897.31;5015137;28;20591;-73
2022/01/26 00:26:26;;;;;;;1.00;1.00;;;;;;;-12.61;77.54;92890.59;5015199;28;20439;-73
2022/01/26 00:29:10;;;;;;;5.60;4.33;;;;;;;-12.63;78.30;92882.41;5015977;28;20486;-73
2022/01/26 00:40:21;;;;;;;1.30;1.30;;;;;;;-12.95;77.61;92889.78;4998918;28;20605;-73
2022/01/26 00:42:51;;;;;;;0.80;0.80;;;;;;;-13.08;78.27;92868.94;5022087;28;20454;-73
2022/01/26 00:45:23;;;;;;;0.90;0.90;;;;;;;-13.16;77.07;92871.78;5038707;28;20456;-73
2022/01/26 00:47:50;;;;;;;1.00;1.00;;;;;;;-13.08;77.29;92895.69;5038786;28;20539;-73
2022/01/26 00:50:17;;;;;;;3.00;2.90;;;;;;;-13.21;78.32;92882.88;5038509;28;20582;-73
2022/01/26 00:52:52;;;;;;;0.90;0.90;;;;;;;-13.15;78.20;92871.03;5038507;28;20636;-73
2022/01/26 00:55:21;;;;;;;0.90;0.90;;;;;;;-13.17;78.90;92877.41;5039002;28;20528;-73
2022/01/26 00:57:50;;;;;;;1.10;1.10;;;;;;;-13.22;79.08;92867.47;5037845;28;20604;-73
2022/01/26 01:00:21;;;;;;;1.97;1.97;;;;;;;-13.13;77.86;92881.66;5039086;28;20553;-73
2022/01/26 01:02:48;;;;;;;1.07;1.07;;;;;;;-13.31;79.00;92863.78;5037643;28;20578;-73
2022/01/26 01:05:18;;;;;;;0.90;0.90;;;;;;;-13.31;79.28;92871.06;5028232;28;20580;-73
2022/01/26 01:07:47;;;;;;;1.00;1.00;;;;;;;-13.26;80.01;92850.25;5038051;28;20483;-73
2022/01/26 01:10:18;;;;;;;1.40;1.40;;;;;;;-13.09;79.74;92854.28;5039691;28;20603;-73
2022/01/26 01:12:49;;;;;;;1.20;1.20;;;;;;;-12.98;78.62;92872.63;5037966;28;20641;-73
2022/01/26 01:15:17;;;;;;;1.07;1.07;;;;;;;-13.17;79.24;92849.06;5018374;28;20458;-73
2022/01/26 01:17:49;;;;;;;1.67;1.67;;;;;;;-13.20;80.40;92856.25;5017639;28;20573;-73
2022/01/26 01:20:33;;;;;;;1.43;1.40;;;;;;;-13.10;80.14;92859.91;5018358;28;20189;-73
2022/01/26 01:23:25;;;;;;;1.10;1.10;;;;;;;-13.16;80.40;92853.19;5018330;28;20589;-73
2022/01/26 01:28:55;;;;;;;1.13;1.13;;;;;;;-13.06;81.04;92826.09;4987154;28;20205;-73
2022/01/26 01:31:40;;;;;;;1.10;1.10;;;;;;;-12.95;79.79;92848.44;5017714;28;20565;-73
2022/01/26 01:34:07;;;;;;;1.00;1.00;;;;;;;-12.98;80.39;92833.75;5017532;28;20262;-73
2022/01/26 01:36:37;;;;;;;0.97;0.97;;;;;;;-12.91;81.64;92830.00;5017728;28;20692;-73
2022/01/26 01:39:07;;;;;;;1.73;1.73;;;;;;;-12.85;80.43;92835.97;5017818;28;20573;-73
2022/01/26 01:41:34;;;;;;;0.97;0.97;;;;;;;-12.91;80.60;92840.56;5017769;28;20566;-73
2022/01/26 01:44:04;;;;;;;1.00;1.00;;;;;;;-12.75;80.09;92833.19;5017436;28;20568;-73
2022/01/26 01:46:31;;;;;;;0.80;0.80;;;;;;;-12.80;80.42;92829.72;5028424;28;20284;-73
2022/01/26 01:48:59;;;;;;;1.30;1.30;;;;;;;-12.78;79.40;92828.19;5017996;28;20502;-73
2022/01/26 01:51:30;;;;;;;0.93;0.93;;;;;;;-12.76;79.90;92830.69;5016619;28;20686;-74
2022/01/26 01:53:58;;;;;;;0.80;0.80;;;;;;;-12.69;80.88;92823.75;5017584;28;20556;-74
2022/01/26 01:56:26;;;;;;;1.03;1.03;;;;;;;-12.63;80.10;92821.59;5017166;28;20255;-74
2022/01/26 01:58:54;;;;;;;0.90;0.90;;;;;;;-12.51;80.55;92818.06;5017427;28;20461;-74
2022/01/26 02:01:23;;;;;;;0.73;0.73;;;;;;;-12.42;79.30;92830.59;5017273;28;20311;-74
2022/01/26 02:03:50;;;;;;;2.40;2.40;;;;;;;-12.37;80.09;92817.88;5016510;28;20570;-74
2022/01/26 02:06:17;;;;;;;1.03;1.03;;;;;;;-12.14;78.47;92835.09;5017002;28;20536;-74
2022/01/26 02:08:44;;;;;;;3.03;1.33;;;;;;;-12.05;79.37;92816.03;5016622;28;20238;-74
2022/01/26 02:11:13;;;;;;;1.30;1.30;;;;;;;-11.98;77.90;92833.38;5016012;28;20608;-74
2022/01/26 02:13:48;;;;;;;0.80;0.80;;;;;;;-12.07;77.65;92828.13;5016892;28;20201;-74
2022/01/26 02:16:22;;;;;;;0.80;0.80;;;;;;;-11.97;76.79;92835.03;5016447;28;20190;-74
2022/01/26 02:19:16;;;;;;;1.23;1.23;;;;;;;-12.12;78.16;92822.22;5017834;28;20194;-74
2022/01/26 02:50:06;;;;;;;1.10;1.10;;;;;;;-11.81;78.86;92803.25;5016663;28;20601;-74
2022/01/26 02:55:31;;;;;;;0.90;0.90;;;;;;;-11.66;79.24;92811.97;5013807;28;20454;-74
2022/01/26 03:00:56;;;;;;;1.00;1.00;;;;;;;-11.63;80.15;92802.34;4991231;28;20623;-74
2022/01/26 03:03:27;;;;;;;1.57;1.57;;;;;;;-11.50;79.43;92807.78;5016446;28;20470;-74
2022/01/26 03:05:59;;;;;;;1.43;1.43;;;;;;;-11.53;79.60;92780.84;5016112;28;20559;-74
2022/01/26 03:08:32;;;;;;;0.97;0.97;;;;;;;-11.36;78.76;92810.75;5016046;28;20571;-74
2022/01/26 03:11:06;;;;;;;1.17;1.17;;;;;;;-11.36;79.86;92799.41;5016053;28;20645;-74
2022/01/26 03:13:36;;;;;;;0.90;0.90;;;;;;;-11.33;79.33;92796.28;5015958;28;20498;-74
2022/01/26 03:16:09;;;;;;;2.73;2.63;;;;;;;-11.18;79.59;92796.88;5016084;28;20479;-74
2022/01/26 03:21:30;;;;;;;0.80;0.80;;;;;;;-11.27;78.52;92798.97;5016021;28;20812;-74
2022/01/26 03:29:42;;;;;;;0.97;0.97;;;;;;;-10.98;79.14;92785.44;5027710;28;20520;-74
2022/01/26 03:34:56;;;;;;;0.77;0.77;;;;;;;-10.91;79.25;92780.88;5016149;28;20521;-74
2022/01/26 03:37:29;;;;;;;1.97;1.93;;;;;;;-10.88;79.15;92763.09;5015322;28;20205;-74
2022/01/26 03:39:56;;;;;;;0.90;0.90;;;;;;;-10.80;77.88;92778.00;5015005;28;20466;-74
2022/01/26 03:42:25;;;;;;;3.60;1.63;;;;;;;-10.74;77.33;92783.94;5015949;28;20566;-74
2022/01/26 03:44:52;;;;;;;0.97;0.97;;;;;;;-10.78;76.93;92777.28;5015525;28;20633;-74
2022/01/26 03:47:19;;;;;;;1.00;1.00;;;;;;;-10.80;75.92;92793.47;5015855;28;20578;-74
2022/01/26 03:49:47;;;;;;;1.60;1.60;;;;;;;-10.98;76.19;92787.88;5015937;28;20679;-74
2022/01/26 03:52:14;;;;;;;1.60;1.60;;;;;;;-11.01;75.78;92787.78;5015734;28;20694;-74
2022/01/26 03:54:41;;;;;;;1.80;1.80;;;;;;;-11.02;77.32;92788.53;5015248;28;20578;-74
2022/01/26 03:57:08;;;;;;;0.73;0.73;;;;;;;-11.12;77.49;92775.16;5015597;28;20578;-74
2022/01/26 03:59:37;;;;;;;1.73;1.73;;;;;;;-11.21;77.46;92777.25;5014993;28;20640;-74
2022/01/26 04:02:04;;;;;;;1.73;1.73;;;;;;;-11.28;77.97;92763.16;5015301;28;20611;-74
2022/01/26 04:04:37;;;;;;;1.87;1.87;;;;;;;-11.29;77.89;92781.00;5015246;28;20691;-74
2022/01/26 04:07:05;;;;;;;1.87;1.80;;;;;;;-11.32;78.87;92765.44;5015621;28;20454;-74
2022/01/26 04:09:32;;;;;;;1.20;1.20;;;;;;;-11.45;79.94;92751.91;5015522;28;20608;-74
2022/01/26 04:11:59;;;;;;;1.67;1.67;;;;;;;-11.25;79.29;92768.16;5035415;28;20633;-74
2022/01/26 04:14:30;;;;;;;1.00;1.00;;;;;;;-11.42;80.24;92754.47;5035652;28;20198;-74
2022/01/26 04:16:59;;;;;;;1.57;1.57;;;;;;;-11.34;80.28;92754.00;5039551;28;20550;-74
2022/01/26 04:19:29;;;;;;;10.13;4.50;;;;;;;-11.28;80.21;92738.78;5039626;28;20213;-74
2022/01/26 04:22:07;;;;;;;0.90;0.90;;;;;;;-11.18;81.04;92749.72;5038761;28;20458;-74
2022/01/26 04:24:38;;;;;;;6.43;3.63;;;;;;;-11.12;81.38;92745.06;5038286;28;20335;-74
2022/01/26 04:27:18;;;;;;;1.83;1.83;;;;;;;-11.15;81.27;92730.34;5037767;28;20661;-74
2022/01/26 04:29:47;;;;;;;0.80;0.80;;;;;;;-11.01;81.97;92744.72;5039086;28;20573;-74
2022/01/26 04:32:16;;;;;;;1.70;1.70;;;;;;;-10.82;81.52;92733.22;5038934;28;20531;-74
2022/01/26 04:34:47;;;;;;;3.27;3.20;;;;;;;-10.83;81.58;92736.44;5037853;28;20588;-74
2022/01/26 04:37:24;;;;;;;2.33;2.33;;;;;;;-10.72;81.31;92737.66;5038882;28;20577;-74
2022/01/26 04:39:56;;;;;;;2.73;2.63;;;;;;;-10.57;79.89;92753.69;5039099;28;20321;-74
2022/01/26 04:42:32;;;;;;;1.33;1.33;;;;;;;-10.64;80.95;92742.03;5037876;28;20618;-74
2022/01/26 04:45:03;;;;;;;3.83;3.73;;;;;;;-10.47;81.16;92754.84;5038703;28;20477;-74
2022/01/26 04:47:31;;;;;;;4.87;4.67;;;;;;;-10.38;79.51;92764.97;5039633;28;20595;-74
2022/01/26 04:49:59;;;;;;;2.17;2.07;;;;;;;-10.41;79.10;92755.06;5038478;28;20537;-74
2022/01/26 04:52:27;;;;;;;2.20;2.20;;;;;;;-10.60;79.00;92760.91;5038055;28;20704;-74
2022/01/26 04:54:54;;;;;;;2.57;2.57;;;;;;;-10.63;80.13;92758.34;5038803;28;20215;-73
2022/01/26 04:57:21;;;;;;;3.73;2.40;;;;;;;-10.54;81.03;92748.09;5038948;28;20590;-73
2022/01/26 04:59:48;;;;;;;2.47;2.37;;;;;;;-10.41;81.26;92747.75;5038396;28;20202;-73
2022/01/26 05:02:15;;;;;;;2.10;2.07;;;;;;;-10.24;80.22;92761.38;5037894;28;20204;-73
2022/01/26 05:04:44;;;;;;;3.10;3.00;;;;;;;-10.21;80.35;92743.59;5038434;28;20684;-73
2022/01/26 05:07:11;;;;;;;3.30;1.77;;;;;;;-10.21;80.48;92743.59;5037804;28;20564;-73
2022/01/26 05:09:39;;;;;;;1.23;1.23;;;;;;;-10.18;80.04;92749.41;5037576;28;20201;-73
2022/01/26 05:12:08;;;;;;;8.07;4.63;;;;;;;-10.28;80.08;92732.75;5038924;28;20219;-73
2022/01/26 05:14:35;;;;;;;4.13;3.83;;;;;;;-10.25;80.41;92729.63;5038977;28;20622;-73
2022/01/26 05:17:03;;;;;;;2.33;2.33;;;;;;;-10.20;81.09;92741.22;5039277;28;20547;-73
2022/01/26 05:19:31;;;;;;;7.60;2.47;;;;;;;-10.03;81.34;92738.47;5038124;28;20602;-73
2022/01/26 05:22:00;;;;;;;5.80;4.50;;;;;;;-10.02;81.60;92736.06;5038662;28;20559;-73
2022/01/26 05:24:27;;;;;;;7.73;3.50;;;;;;;-9.85;82.30;92729.31;5037706;28;20259;-73
2022/01/26 05:26:54;;;;;;;5.17;4.67;;;;;;;-9.72;82.15;92736.28;5036482;28;20695;-73
2022/01/26 05:29:22;;;;;;;3.73;3.63;;;;;;;-9.74;81.39;92736.22;5037595;28;20579;-73
2022/01/26 05:31:49;;;;;;;3.23;3.13;;;;;;;-9.71;80.91;92737.94;5037635;28;20517;-73
2022/01/26 05:34:17;;;;;;;1.60;1.57;;;;;;;-9.58;81.42;92742.47;5037246;28;20206;-73
2022/01/26 05:36:44;;;;;;;2.93;2.83;;;;;;;-9.45;80.93;92741.25;5037142;28;20659;-72
2022/01/26 05:39:13;;;;;;;1.93;1.93;;;;;;;-9.39;80.98;92727.59;5038111;28;20596;-72
2022/01/26 05:41:40;;;;;;;2.87;2.80;;;;;;;-9.36;81.62;92732.59;5037512;28;20463;-73
2022/01/26 05:44:08;;;;;;;3.83;3.63;;;;;;;-9.26;81.01;92728.84;5033252;28;20285;-73
2022/01/26 05:46:40;;;;;;;4.30;4.00;;;;;;;-9.11;80.65;92736.63;5037493;28;20517;-74
2022/01/26 05:49:07;;;;;;;5.10;3.63;;;;;;;-9.19;80.76;92734.75;5038030;28;20468;-73
2022/01/26 05:51:34;;;;;;;6.90;4.70;;;;;;;-9.07;80.70;92740.88;5037280;28;20707;-74
2022/01/26 05:54:02;;;;;;;3.97;3.77;;;;;;;-8.98;79.29;92745.19;5037228;28;20490;-73
2022/01/26 05:56:31;;;;;;;3.70;3.50;;;;;;;-8.96;79.49;92742.03;5036983;28;20643;-74
2022/01/26 05:58:59;;;;;;;5.30;4.23;;;;;;;-8.98;79.98;92730.50;5036731;28;20573;-74
2022/01/26 06:01:27;;;;;;;4.50;4.30;;;;;;;-8.89;78.70;92743.03;5036320;28;20534;-74
2022/01/26 06:03:54;;;;;;;2.17;2.17;;;;;;;-8.86;78.03;92739.06;5037412;28;20517;-75
2022/01/26 06:06:21;;;;;;;4.83;4.40;;;;;;;-8.66;77.80;92754.34;5038111;28;20537;-74
2022/01/26 06:08:49;;;;;;;6.37;5.47;;;;;;;-8.60;77.61;92752.06;5036846;28;20494;-75
2022/01/26 06:11:16;;;;;;;5.33;3.67;;;;;;;-8.78;78.91;92736.84;5035432;28;20677;-75
2022/01/26 06:13:45;;;;;;;5.07;4.43;;;;;;;-8.72;78.48;92726.41;5025723;28;20203;-75
2022/01/26 06:16:13;;;;;;;7.17;4.90;;;;;;;-8.51;77.62;92758.88;5018536;28;20490;-75
2022/01/26 06:18:41;;;;;;;5.57;5.23;;;;;;;-8.49;78.37;92755.66;5018755;28;20279;-75
2022/01/26 06:21:08;;;;;;;11.13;5.10;;;;;;;-8.50;78.12;92756.44;5020773;28;20469;-75
2022/01/26 06:23:36;;;;;;;4.60;4.40;;;;;;;-8.52;77.44;92750.69;5021876;28;20540;-76
2022/01/26 06:26:03;;;;;;;81.38;34.58;;;;;;;-8.62;77.57;92738.97;5018013;28;20914;-75
2022/01/26 06:28:30;;;;;;;11.37;8.53;;;;;;;-8.65;77.72;92730.69;5015890;28;20564;-75
2022/01/26 06:31:02;;;;;;;8.20;7.60;;;;;;;-8.61;77.86;92749.56;5015615;28;20226;-75
2022/01/26 06:33:32;;;;;;;8.43;5.47;;;;;;;-8.48;78.19;92744.25;5015653;28;20484;-74
2022/01/26 06:36:00;;;;;;;4.67;4.57;;;;;;;-8.49;77.09;92747.50;5017457;28;20478;-74
2022/01/26 06:38:28;;;;;;;3.10;3.10;;;;;;;-8.49;77.27;92757.28;5014455;28;20288;-74
2022/01/26 06:40:56;;;;;;;2.83;2.73;;;;;;;-8.53;77.24;92741.69;5015138;28;20310;-75
2022/01/26 06:43:26;;;;;;;9.73;6.23;;;;;;;-8.87;77.65;92726.78;5015189;28;20197;-73
2022/01/26 06:45:58;;;;;;;3.43;3.23;;;;;;;-8.74;77.67;92740.22;5016980;28;20200;-75
2022/01/26 06:48:42;;;;;;;4.40;2.77;;;;;;;-8.81;77.87;92742.47;5018020;28;20668;-74
2022/01/26 06:51:11;;;;;;;3.80;3.60;;;;;;;-8.95;78.66;92721.66;5022943;28;20220;-74
2022/01/26 06:53:38;;;;;;;8.10;5.57;;;;;;;-8.88;78.37;92756.94;5027184;28;20215;-75
2022/01/26 06:56:05;;;;;;;4.50;2.80;;;;;;;-9.08;79.11;92729.41;5027105;28;20584;-76
2022/01/26 06:58:33;;;;;;;4.23;4.03;;;;;;;-9.03;78.68;92742.63;5025673;28;20542;-75
2022/01/26 07:01:00;;;;;;;4.13;3.77;;;;;;;-8.92;78.99;92742.94;5026038;28;20553;-75
2022/01/26 07:03:28;;;;;;;4.40;2.83;;;;;;;-8.87;77.79;92741.47;5027273;28;20552;-75
2022/01/26 07:05:56;;;;;;;3.30;3.20;;;;;;;-8.72;77.58;92766.38;5018896;28;20542;-76
2022/01/26 07:08:23;;;;;;;3.57;3.37;;;;;;;-8.66;77.58;92754.34;5024601;28;20514;-74
2022/01/26 07:10:53;;;;;;;1.97;1.97;;;;;;;-8.66;76.72;92755.94;5026692;28;20674;-74
2022/01/26 07:13:20;;;;;;;1.93;1.90;;;;;;;-8.67;77.20;92751.84;5019377;28;20581;-74
2022/01/26 07:21:26;;;;;;;3.10;3.00;;;;;;;-8.58;77.43;92747.22;5022623;28;20219;-74
2022/01/26 07:23:54;;;;;;;2.80;2.70;;;;;;;-8.74;78.31;92713.28;5018202;28;20547;-73
2022/01/26 07:26:21;;;;;;;3.73;3.63;;;;;;;-8.57;78.54;92751.34;5025784;28;20251;-74
2022/01/26 07:28:49;;;;;;;4.10;3.87;;;;;;;-8.83;79.61;92700.00;5025807;28;20475;-75
2022/01/26 07:31:16;;;;;;;3.70;3.40;;;;;;;-8.41;80.22;92746.94;5025381;28;20600;-74
2022/01/26 07:33:45;;;;;;;2.40;2.33;;;;;;;-8.43;79.76;92733.81;5024570;28;20645;-74
2022/01/26 07:36:12;;;;;;;5.20;5.00;;;;;;;-8.21;79.14;92745.00;5017605;28;20610;-74
2022/01/26 07:38:39;;;;;;;6.10;5.90;;;;;;;-8.01;79.42;92745.56;5026475;28;20598;-75
2022/01/26 07:41:06;;;;;;;4.53;4.43;;;;;;;-8.02;79.76;92731.66;5026506;28;20655;-74
2022/01/26 07:43:34;;;;;;;5.10;4.90;;;;;;;-7.83;80.62;92742.78;5025664;28;20250;-75
2022/01/26 07:46:01;;;;;;;5.03;4.83;;;;;;;-7.80;79.96;92746.16;5024970;28;20497;-74
2022/01/26 07:48:28;;;;;;;19.90;5.43;;;;;;;-7.61;79.42;92753.22;5025295;28;20232;-74
2022/01/26 07:50:57;;;;;;;5.97;5.70;;;;;;;-7.56;79.33;92750.88;5028605;28;20624;-75
2022/01/26 07:53:24;;;;;;;3.67;3.57;;;;;;;-7.60;80.55;92737.69;5030008;28;20656;-74
2022/01/26 07:55:51;;;;;;;7.50;6.80;;;;;;;-7.62;79.75;92749.09;5029632;28;20438;-74
2022/01/26 07:58:20;;;;;;;5.53;5.33;;;;;;;-7.45;79.20;92769.16;5027904;28;20530;-75
2022/01/26 08:00:48;;;;;;;4.87;4.43;;;;;;;-7.54;77.95;92734.56;5025225;28;20580;-75
2022/01/26 08:03:17;;;;;;;6.30;5.90;;;;;;;-7.31;77.87;92767.88;5028000;28;20230;-75
2022/01/26 08:05:45;;;;;;;13.10;8.90;;;;;;;-7.60;77.32;92752.41;5026904;28;20563;-74
2022/01/26 08:08:14;;;;;;;2.03;2.03;;;;;;;-7.49;76.27;92784.56;5027796;28;20585;-75
2022/01/26 08:10:41;;;;;;;6.87;6.40;;;;;;;-7.54;77.33;92786.91;5030414;28;20209;-74
2022/01/26 08:13:08;;;;;;;7.37;6.83;;;;;;;-7.62;78.76;92756.44;5021679;28;20501;-72
2022/01/26 08:15:35;;;;;;;10.67;5.37;;;;;;;-7.49;79.42;92771.50;5030089;28;20196;-76
2022/01/26 08:18:06;;;;;;;5.57;5.07;;;;;;;-7.51;79.35;92765.69;5029938;28;20562;-74
2022/01/26 08:20:34;;;;;;;6.27;5.93;;;;;;;-7.61;79.50;92760.56;5029157;28;20721;-73
2022/01/26 08:23:01;;;;;;;7.67;6.97;;;;;;;-7.63;80.56;92769.50;5019725;28;20520;-74
2022/01/26 08:25:30;;;;;;;13.90;5.87;;;;;;;-7.82;82.34;92745.28;5029804;28;20563;-74
2022/01/26 08:28:04;;;;;;;5.93;5.47;;;;;;;-7.79;82.66;92738.00;5026965;28;20325;-75
2022/01/26 08:30:35;;;;;;;6.07;5.53;;;;;;;-7.62;83.46;92743.34;5030254;28;20202;-75
2022/01/26 08:33:04;;;;;;;5.43;5.33;;;;;;;-7.27;83.88;92761.44;5030002;28;20495;-74
2022/01/26 08:35:31;;;;;;;6.43;6.13;;;;;;;-7.13;84.92;92760.13;5019388;28;20197;-74
2022/01/26 08:37:59;;;;;;;6.77;6.27;;;;;;;-7.06;85.34;92751.31;5028977;28;20618;-75
2022/01/26 08:40:26;;;;;;;7.70;7.10;;;;;;;-6.97;85.77;92749.06;5020721;28;20552;-74
2022/01/26 08:42:56;;;;;;;6.90;6.50;;;;;;;-6.79;85.79;92757.69;5028295;28;20206;-74
2022/01/26 08:45:25;;;;;;;8.57;7.20;;;;;;;-6.59;86.13;92755.69;5029320;28;20201;-74
2022/01/26 08:47:52;;;;;;;7.97;7.17;;;;;;;-6.37;86.67;92757.84;5029843;28;20692;-73
2022/01/26 08:50:20;;;;;;;7.97;7.30;;;;;;;-6.18;86.62;92759.03;5027960;28;20568;-74
2022/01/26 08:52:48;;;;;;;6.37;5.90;;;;;;;-5.97;86.87;92747.19;5028260;28;20618;-72
2022/01/26 08:55:15;;;;;;;9.37;8.43;;;;;;;-5.85;87.45;92740.03;5029705;28;20603;-72
2022/01/26 08:57:42;;;;;;;7.80;7.20;;;;;;;-5.58;87.63;92753.69;5029117;28;20589;-73
2022/01/26 09:00:13;;;;;;;6.17;5.83;;;;;;;-5.41;87.82;92752.34;5029304;28;20662;-73
2022/01/26 09:02:40;;;;;;;6.40;6.17;;;;;;;-5.38;89.32;92746.66;5028199;28;20508;-72
2022/01/26 09:05:09;;;;;;;6.40;6.13;;;;;;;-5.21;88.49;92751.06;5018306;28;20228;-72
2022/01/26 09:07:37;;;;;;;6.83;6.50;;;;;;;-5.07;88.09;92747.19;5029282;28;20537;-73
2022/01/26 09:10:06;;;;;;;15.63;8.97;;;;;;;-4.85;87.91;92757.44;5023625;28;20494;-73
2022/01/26 09:12:36;;;;;;;11.47;8.10;;;;;;;-4.80;87.39;92739.47;5019786;28;20496;-74
2022/01/26 09:15:06;;;;;;;7.37;6.77;;;;;;;-4.54;86.83;92751.34;5023840;28;20501;-72
2022/01/26 09:17:35;;;;;;;8.40;8.00;;;;;;;-4.43;86.85;92758.09;5025103;28;20501;-74
2022/01/26 09:20:03;;;;;;;14.00;12.40;;;;;;;-4.50;82.53;92762.88;5026907;28;20596;-74
2022/01/26 09:22:30;;;;;;;13.33;12.23;;;;;;;-4.51;79.85;92784.28;5023392;28;20448;-72
2022/01/26 09:24:58;;;;;;;7.93;7.57;;;;;;;-4.70;75.90;92779.84;5026353;28;20218;-74
2022/01/26 09:27:25;;;;;;;13.73;12.30;;;;;;;-4.76;77.30;92774.81;5024025;28;20212;-75
2022/01/26 09:29:53;;;;;;;13.90;12.70;;;;;;;-4.90;76.99;92779.50;5024259;28;20606;-74
2022/01/26 09:32:20;;;;;;;4.93;4.63;;;;;;;-5.44;74.75;92792.50;5022071;28;20487;-74
2022/01/26 09:34:49;;;;;;;11.27;5.53;;;;;;;-5.67;76.15;92775.63;5020492;28;20557;-74
2022/01/26 09:37:17;;;;;;;3.87;3.67;;;;;;;-5.79;77.06;92758.16;5023609;28;20486;-74
2022/01/26 09:39:47;;;;;;;6.90;6.17;;;;;;;-5.84;76.98;92740.84;5018832;28;20601;-74
2022/01/26 09:42:15;;;;;;;5.80;5.37;;;;;;;-5.73;77.56;92758.28;5024301;28;20620;-72
2022/01/26 09:44:44;;;;;;;7.40;7.00;;;;;;;-5.64;78.69;92751.09;5021119;28;20518;-73
2022/01/26 09:47:11;;;;;;;8.27;7.80;;;;;;;-5.55;77.21;92769.31;5026479;28;20676;-73
2022/01/26 09:49:39;;;;;;;11.73;6.33;;;;;;;-5.45;76.65;92761.31;5027864;28;20586;-73
2022/01/26 09:52:19;;;;;;;4.70;4.50;;;;;;;-5.32;75.88;92774.66;5027980;28;20534;-73
2022/01/26 09:54:47;;;;;;;6.13;5.73;;;;;;;-5.23;76.02;92772.38;5027865;28;20340;-72
2022/01/26 09:57:15;;;;;;;18.13;16.53;;;;;;;-5.21;76.32;92748.63;5019343;28;20621;-74
2022/01/26 09:59:42;;;;;;;4.07;3.97;;;;;;;-5.03;73.49;92783.41;5018253;28;20633;-75
2022/01/26 10:02:21;;;;;;;4.43;4.27;;;;;;;-4.99;72.39;92783.44;5015753;28;20221;-74
2022/01/26 10:04:55;;;;;;;4.23;4.03;;;;;;;-5.24;72.11;92731.31;5015680;28;20602;-76
2022/01/26 10:07:28;;;;;;;8.77;7.97;;;;;;;-4.92;71.96;92775.38;5015694;28;20222;-76
2022/01/26 10:10:08;;;;;;;7.97;7.50;;;;;;;-4.75;72.57;92771.56;5028004;28;20210;-73
2022/01/26 10:15:28;;;;;;;9.97;9.03;;;;;;;-4.55;71.88;92774.31;5018078;28;20468;-75
2022/01/26 10:18:09;;;;;;;9.57;8.80;;;;;;;-4.50;72.31;92768.66;5019242;28;20525;-73
2022/01/26 10:20:41;;;;;;;10.67;9.63;;;;;;;-4.49;71.13;92782.63;5021267;28;20572;-74
2022/01/26 10:23:13;;;;;;;5.93;5.67;;;;;;;-4.52;70.98;92775.22;5026209;28;20559;-74
2022/01/26 10:25:43;;;;;;;9.67;8.80;;;;;;;-4.36;71.71;92774.63;5024596;28;20581;-75
2022/01/26 10:28:11;;;;;;;7.37;6.80;;;;;;;-4.28;71.69;92769.81;5020389;28;20545;-73
2022/01/26 10:30:44;;;;;;;13.03;7.53;;;;;;;-4.14;72.35;92765.91;5022335;28;20506;-73
2022/01/26 10:33:12;;;;;;;10.67;9.93;;;;;;;-4.13;73.63;92735.50;5019096;28;20567;-73
2022/01/26 10:35:39;;;;;;;10.87;10.03;;;;;;;-3.80;71.91;92759.78;5016477;28;20235;-73
2022/01/26 10:38:07;;;;;;;11.17;10.57;;;;;;;-3.55;71.09;92764.19;5013544;28;20548;-74
2022/01/26 10:40:39;;;;;;;11.10;10.67;;;;;;;-3.28;71.42;92760.38;5019235;28;20472;-73
2022/01/26 10:43:11;;;;;;;9.73;9.23;;;;;;;-3.09;71.18;92742.44;5024889;28;20642;-73
2022/01/26 10:45:51;;;;;;;13.83;12.77;;;;;;;-2.82;70.44;92767.47;5024097;28;20653;-73
2022/01/26 10:48:27;;;;;;;15.73;14.13;;;;;;;-2.78;69.70;92754.31;5020879;28;20208;-76
2022/01/26 10:53:44;;;;;;;20.47;17.13;;;;;;;-2.47;71.39;92728.16;4992500;28;20308;-75
2022/01/26 10:56:13;;;;;;;20.27;18.03;;;;;;;-2.17;71.65;92725.91;5022301;28;20205;-72
2022/01/26 10:58:41;;;;;;;20.97;17.63;;;;;;;-2.03;70.55;92732.59;5026821;28;20204;-74
2022/01/26 11:01:08;;;;;;;28.27;21.27;;;;;;;-1.90;69.63;92735.13;5026917;28;20194;-75
2022/01/26 11:03:35;;;;;;;23.47;19.07;;;;;;;-1.73;71.01;92721.19;5024837;28;20539;-75
2022/01/26 11:06:05;;;;;;;32.67;25.53;;;;;;;-1.56;70.40;92726.22;5018159;28;20602;-74
2022/01/26 11:08:38;;;;;;;37.97;28.27;;;;;;;-1.44;70.45;92722.94;5024254;28;20602;-74
2022/01/26 11:11:05;;;;;;;37.67;23.20;;;;;;;-1.38;69.42;92720.50;5024479;28;20562;-74
2022/01/26 11:13:39;;;;;;;49.73;28.43;;;;;;;-1.26;69.45;92718.06;5028814;28;20605;-73
2022/01/26 11:16:09;;;;;;;37.43;29.47;;;;;;;-1.11;69.18;92722.22;5024504;28;20198;-76
2022/01/26 11:18:48;;;;;;;56.33;32.60;;;;;;;-1.00;69.94;92708.19;5025060;28;20459;-75
2022/01/26 11:21:30;;;;;;;47.30;29.53;;;;;;;-1.01;69.76;92689.19;5024207;28;20531;-75
2022/01/26 11:24:09;;;;;;;48.90;29.67;;;;;;;-0.79;68.87;92708.25;5018682;28;20586;-74
2022/01/26 11:26:38;;;;;;;53.50;33.40;;;;;;;-0.74;69.25;92695.84;5022103;28;20229;-75
2022/01/26 11:29:16;;;;;;;52.77;33.80;;;;;;;-0.56;68.63;92699.13;5019407;28;20475;-75
2022/01/26 11:31:44;;;;;;;83.43;34.43;;;;;;;-0.43;69.20;92690.03;5014521;28;20599;-77
2022/01/26 11:34:11;;;;;;;70.97;40.97;;;;;;;-0.33;69.23;92689.19;5015282;28;20531;-75
2022/01/26 11:36:42;;;;;;;121.40;54.47;;;;;;;-0.33;68.90;92691.66;5015254;28;20599;-75
2022/01/26 11:42:20;;;;;;;96.87;50.43;;;;;;;-0.46;69.40;92680.94;5016199;28;20643;-75
2022/01/26 11:45:08;;;;;;;42.53;28.13;;;;;;;-0.62;67.58;92708.25;5019619;28;20571;-75
2022/01/26 11:47:37;;;;;;;31.03;19.00;;;;;;;-0.79;67.25;92699.97;5019213;28;20650;-75
2022/01/26 11:50:16;;;;;;;32.70;24.27;;;;;;;-0.88;69.52;92676.81;5024896;28;20202;-75
2022/01/26 11:52:47;;;;;;;37.23;25.47;;;;;;;-0.86;69.65;92671.84;5014405;28;20296;-75
2022/01/26 11:55:32;;;;;;;41.30;25.23;;;;;;;-0.93;69.08;92680.09;5019111;28;20233;-75
2022/01/26 11:58:11;;;;;;;48.27;29.20;;;;;;;-0.90;70.87;92670.19;5025717;28;20201;-74
2022/01/26 12:00:56;;;;;;;37.47;25.87;;;;;;;-1.04;70.67;92647.88;5024978;28;20556;-74
2022/01/26 12:03:31;;;;;;;42.57;30.67;;;;;;;-0.91;71.05;92658.63;5024585;28;20609;-74
2022/01/26 12:05:59;;;;;;;60.17;32.57;;;;;;;-0.84;71.47;92661.09;5031120;28;20544;-74
2022/01/26 12:08:36;;;;;;;62.73;32.23;;;;;;;-0.71;72.34;92651.19;5023227;28;20583;-73
2022/01/26 12:11:06;;;;;;;57.90;31.70;;;;;;;-0.56;72.88;92651.16;5024128;28;20501;-75
2022/01/26 12:13:36;;;;;;;66.70;37.23;;;;;;;-0.43;71.42;92656.13;5026706;28;20672;-74
2022/01/26 12:16:11;;;;;;;73.77;41.40;;;;;;;-0.36;71.32;92653.63;5026567;28;20270;-74
2022/01/26 12:18:45;;;;;;;58.27;34.33;;;;;;;-0.23;71.23;92665.19;5026105;28;20493;-74
2022/01/26 12:33:23;;;;;;;34.57;23.20;;;;;;;0.44;69.72;92665.00;5026359;28;20358;-74
2022/01/26 12:35:55;;;;;;;56.00;31.87;;;;;;;0.53;71.12;92662.44;5026969;28;20228;-73
2022/01/26 12:38:31;;;;;;;22.37;12.73;;;;;;;0.70;68.12;92686.41;5027406;28;20632;-74
2022/01/26 12:41:23;;;;;;;19.63;11.87;;;;;;;0.88;67.51;92683.00;5027868;28;20581;-74
2022/01/26 12:43:53;;;;;;;19.63;10.27;;;;;;;1.07;67.32;92684.50;5029099;28;20297;-73
2022/01/26 12:46:22;;;;;;;22.60;16.23;;;;;;;1.12;67.40;92677.03;5025523;28;20558;-74
2022/01/26 12:48:53;;;;;;;50.50;16.20;;;;;;;1.12;66.32;92687.81;5026059;28;20509;-74
2022/01/26 12:51:21;;;;;;;5.20;4.73;;;;;;;1.20;65.72;92681.13;5027004;28;20517;-73
2022/01/26 12:53:52;;;;;;;6.03;5.50;;;;;;;1.29;65.49;92681.91;5026475;28;20674;-73
2022/01/26 12:56:19;;;;;;;2.27;2.23;;;;;;;1.23;65.02;92680.28;5027704;28;20206;-73
2022/01/26 12:58:47;;;;;;;4.47;3.67;;;;;;;1.24;64.87;92680.25;5027280;28;20582;-73
2022/01/26 13:01:18;;;;;;;17.40;6.37;;;;;;;1.37;65.04;92677.69;5023597;28;20201;-74
2022/01/26 13:03:48;;;;;;;3.23;3.13;;;;;;;1.38;63.97;92697.59;5020225;28;20586;-74
2022/01/26 13:06:22;;;;;;;5.33;4.13;;;;;;;1.31;65.33;92672.75;5029295;28;20522;-74